sensor_id;sensor_type;location;lat;lon;timestamp;P1;durP1;ratioP1;P2;durP2;ratioP2
35506;SDS011;36461;52.018;21.036;2024-01-30T00:00:43;35.60;;;22.00;;
35506;SDS011;36461;52.018;21.036;2024-01-30T00:03:31;37.70;;;21.70;;
35506;SDS011;36461;52.018;21.036;2024-01-30T00:05:59;35.40;;;20.10;;
35506;SDS011;36461;52.018;21.036;2024-01-30T00:08:28;37.40;;;21.20;;
35506;SDS011;36461;52.018;21.036;2024-01-30T00:10:56;36.00;;;19.70;;
35506;SDS011;36461;52.018;21.036;2024-01-30T00:13:24;31.20;;;18.30;;
35506;SDS011;36461;52.018;21.036;2024-01-30T00:15:52;32.00;;;19.90;;
35506;SDS011;36461;52.018;21.036;2024-01-30T00:18:21;37.50;;;20.70;;
35506;SDS011;36461;52.018;21.036;2024-01-30T00:20:49;36.90;;;20.90;;
35506;SDS011;36461;52.018;21.036;2024-01-30T00:23:18;37.10;;;21.20;;
35506;SDS011;36461;52.018;21.036;2024-01-30T00:25:46;35.40;;;20.40;;
35506;SDS011;36461;52.018;21.036;2024-01-30T00:28:14;37.00;;;21.30;;
35506;SDS011;36461;52.018;21.036;2024-01-30T00:30:42;39.30;;;21.30;;
35506;SDS011;36461;52.018;21.036;2024-01-30T00:33:11;35.30;;;20.50;;
35506;SDS011;36461;52.018;21.036;2024-01-30T00:35:39;33.40;;;19.40;;
35506;SDS011;36461;52.018;21.036;2024-01-30T00:38:07;32.00;;;19.60;;
35506;SDS011;36461;52.018;21.036;2024-01-30T00:40:35;31.70;;;20.10;;
35506;SDS011;36461;52.018;21.036;2024-01-30T00:43:03;32.90;;;18.00;;
35506;SDS011;36461;52.018;21.036;2024-01-30T00:45:32;33.60;;;19.90;;
35506;SDS011;36461;52.018;21.036;2024-01-30T00:48:00;32.70;;;19.80;;
35506;SDS011;36461;52.018;21.036;2024-01-30T00:50:28;33.60;;;20.90;;
35506;SDS011;36461;52.018;21.036;2024-01-30T00:52:56;34.60;;;21.00;;
35506;SDS011;36461;52.018;21.036;2024-01-30T00:55:24;38.00;;;21.20;;
35506;SDS011;36461;52.018;21.036;2024-01-30T00:57:53;34.80;;;20.20;;
35506;SDS011;36461;52.018;21.036;2024-01-30T01:00:22;37.40;;;21.10;;
35506;SDS011;36461;52.018;21.036;2024-01-30T01:02:54;36.50;;;20.30;;
35506;SDS011;36461;52.018;21.036;2024-01-30T01:05:23;32.10;;;19.40;;
35506;SDS011;36461;52.018;21.036;2024-01-30T01:07:51;32.50;;;18.90;;
35506;SDS011;36461;52.018;21.036;2024-01-30T01:10:20;28.10;;;17.80;;
35506;SDS011;36461;52.018;21.036;2024-01-30T01:12:48;30.50;;;18.60;;
35506;SDS011;36461;52.018;21.036;2024-01-30T01:15:17;29.00;;;19.10;;
35506;SDS011;36461;52.018;21.036;2024-01-30T01:17:45;31.10;;;19.00;;
35506;SDS011;36461;52.018;21.036;2024-01-30T01:20:14;32.00;;;18.20;;
35506;SDS011;36461;52.018;21.036;2024-01-30T01:22:42;27.80;;;17.30;;
35506;SDS011;36461;52.018;21.036;2024-01-30T01:25:10;26.90;;;16.80;;
35506;SDS011;36461;52.018;21.036;2024-01-30T01:27:38;26.30;;;16.10;;
35506;SDS011;36461;52.018;21.036;2024-01-30T01:30:09;32.40;;;18.80;;
35506;SDS011;36461;52.018;21.036;2024-01-30T01:32:39;33.20;;;19.50;;
35506;SDS011;36461;52.018;21.036;2024-01-30T01:35:12;30.80;;;18.80;;
35506;SDS011;36461;52.018;21.036;2024-01-30T01:37:41;30.80;;;18.20;;
35506;SDS011;36461;52.018;21.036;2024-01-30T01:40:09;31.60;;;18.70;;
35506;SDS011;36461;52.018;21.036;2024-01-30T01:42:37;35.20;;;19.50;;
35506;SDS011;36461;52.018;21.036;2024-01-30T01:45:06;36.60;;;19.90;;
35506;SDS011;36461;52.018;21.036;2024-01-30T01:47:35;35.80;;;18.80;;
35506;SDS011;36461;52.018;21.036;2024-01-30T01:50:03;30.10;;;17.60;;
35506;SDS011;36461;52.018;21.036;2024-01-30T01:52:33;26.30;;;16.30;;
35506;SDS011;36461;52.018;21.036;2024-01-30T01:55:01;25.20;;;16.10;;
35506;SDS011;36461;52.018;21.036;2024-01-30T01:57:30;27.40;;;16.10;;
35506;SDS011;36461;52.018;21.036;2024-01-30T02:00:00;27.30;;;16.40;;
35506;SDS011;36461;52.018;21.036;2024-01-30T02:02:35;27.10;;;17.00;;
35506;SDS011;36461;52.018;21.036;2024-01-30T02:05:05;28.20;;;17.80;;
35506;SDS011;36461;52.018;21.036;2024-01-30T02:07:34;27.00;;;17.30;;
35506;SDS011;36461;52.018;21.036;2024-01-30T02:10:02;31.40;;;17.70;;
35506;SDS011;36461;52.018;21.036;2024-01-30T02:12:32;30.70;;;16.80;;
35506;SDS011;36461;52.018;21.036;2024-01-30T02:15:00;31.70;;;17.70;;
35506;SDS011;36461;52.018;21.036;2024-01-30T02:17:28;32.60;;;17.90;;
35506;SDS011;36461;52.018;21.036;2024-01-30T02:19:56;29.00;;;17.00;;
35506;SDS011;36461;52.018;21.036;2024-01-30T02:22:25;33.80;;;18.50;;
35506;SDS011;36461;52.018;21.036;2024-01-30T02:24:53;28.80;;;16.20;;
35506;SDS011;36461;52.018;21.036;2024-01-30T02:27:21;30.20;;;17.70;;
35506;SDS011;36461;52.018;21.036;2024-01-30T02:29:50;26.80;;;16.60;;
35506;SDS011;36461;52.018;21.036;2024-01-30T02:32:18;25.70;;;15.90;;
35506;SDS011;36461;52.018;21.036;2024-01-30T02:34:46;29.20;;;16.60;;
35506;SDS011;36461;52.018;21.036;2024-01-30T02:37:14;26.30;;;15.60;;
35506;SDS011;36461;52.018;21.036;2024-01-30T02:39:42;24.40;;;15.90;;
35506;SDS011;36461;52.018;21.036;2024-01-30T02:42:11;26.00;;;15.90;;
35506;SDS011;36461;52.018;21.036;2024-01-30T02:44:39;24.50;;;16.00;;
35506;SDS011;36461;52.018;21.036;2024-01-30T02:47:08;26.60;;;15.90;;
35506;SDS011;36461;52.018;21.036;2024-01-30T02:49:36;29.20;;;16.50;;
35506;SDS011;36461;52.018;21.036;2024-01-30T02:52:04;30.20;;;17.90;;
35506;SDS011;36461;52.018;21.036;2024-01-30T02:54:33;30.30;;;17.70;;
35506;SDS011;36461;52.018;21.036;2024-01-30T02:57:01;31.10;;;17.50;;
35506;SDS011;36461;52.018;21.036;2024-01-30T03:07:06;26.70;;;15.70;;
35506;SDS011;36461;52.018;21.036;2024-01-30T03:09:36;23.80;;;15.20;;
35506;SDS011;36461;52.018;21.036;2024-01-30T03:12:05;25.70;;;15.00;;
35506;SDS011;36461;52.018;21.036;2024-01-30T03:14:38;23.50;;;15.40;;
35506;SDS011;36461;52.018;21.036;2024-01-30T03:17:06;25.10;;;15.10;;
35506;SDS011;36461;52.018;21.036;2024-01-30T03:19:34;27.20;;;17.10;;
35506;SDS011;36461;52.018;21.036;2024-01-30T03:22:02;28.20;;;16.50;;
35506;SDS011;36461;52.018;21.036;2024-01-30T03:24:31;28.80;;;16.80;;
35506;SDS011;36461;52.018;21.036;2024-01-30T03:26:59;31.70;;;17.70;;
35506;SDS011;36461;52.018;21.036;2024-01-30T03:29:27;30.10;;;17.00;;
35506;SDS011;36461;52.018;21.036;2024-01-30T03:31:55;33.30;;;17.50;;
35506;SDS011;36461;52.018;21.036;2024-01-30T03:34:24;28.90;;;17.20;;
35506;SDS011;36461;52.018;21.036;2024-01-30T03:36:52;28.00;;;16.20;;
35506;SDS011;36461;52.018;21.036;2024-01-30T03:39:20;30.00;;;17.00;;
35506;SDS011;36461;52.018;21.036;2024-01-30T03:41:48;28.70;;;15.80;;
35506;SDS011;36461;52.018;21.036;2024-01-30T03:44:17;27.10;;;16.60;;
35506;SDS011;36461;52.018;21.036;2024-01-30T03:46:45;29.10;;;16.10;;
35506;SDS011;36461;52.018;21.036;2024-01-30T03:49:14;26.30;;;16.80;;
35506;SDS011;36461;52.018;21.036;2024-01-30T03:51:42;31.00;;;17.20;;
35506;SDS011;36461;52.018;21.036;2024-01-30T03:54:10;33.70;;;17.40;;
35506;SDS011;36461;52.018;21.036;2024-01-30T03:56:39;33.50;;;19.10;;
35506;SDS011;36461;52.018;21.036;2024-01-30T03:59:07;34.60;;;19.60;;
35506;SDS011;36461;52.018;21.036;2024-01-30T04:01:35;40.80;;;21.50;;
35506;SDS011;36461;52.018;21.036;2024-01-30T04:04:04;48.00;;;24.40;;
35506;SDS011;36461;52.018;21.036;2024-01-30T04:06:32;50.50;;;24.70;;
35506;SDS011;36461;52.018;21.036;2024-01-30T04:09:00;52.80;;;24.70;;
35506;SDS011;36461;52.018;21.036;2024-01-30T04:11:28;50.30;;;24.50;;
35506;SDS011;36461;52.018;21.036;2024-01-30T04:13:57;44.20;;;22.20;;
35506;SDS011;36461;52.018;21.036;2024-01-30T04:16:25;42.90;;;22.20;;
35506;SDS011;36461;52.018;21.036;2024-01-30T04:18:53;40.00;;;21.70;;
35506;SDS011;36461;52.018;21.036;2024-01-30T04:21:22;35.50;;;19.50;;
35506;SDS011;36461;52.018;21.036;2024-01-30T04:23:51;33.50;;;20.60;;
35506;SDS011;36461;52.018;21.036;2024-01-30T04:26:19;33.40;;;19.10;;
35506;SDS011;36461;52.018;21.036;2024-01-30T04:28:48;32.20;;;19.30;;
35506;SDS011;36461;52.018;21.036;2024-01-30T04:31:16;36.60;;;19.50;;
35506;SDS011;36461;52.018;21.036;2024-01-30T04:33:44;32.50;;;18.30;;
35506;SDS011;36461;52.018;21.036;2024-01-30T04:36:13;34.10;;;20.20;;
35506;SDS011;36461;52.018;21.036;2024-01-30T04:38:41;32.30;;;18.40;;
35506;SDS011;36461;52.018;21.036;2024-01-30T04:41:09;35.60;;;20.00;;
35506;SDS011;36461;52.018;21.036;2024-01-30T04:43:37;32.70;;;19.60;;
35506;SDS011;36461;52.018;21.036;2024-01-30T04:46:06;29.90;;;17.50;;
35506;SDS011;36461;52.018;21.036;2024-01-30T04:48:34;31.70;;;18.00;;
35506;SDS011;36461;52.018;21.036;2024-01-30T04:51:02;30.50;;;17.70;;
35506;SDS011;36461;52.018;21.036;2024-01-30T04:53:32;29.10;;;17.50;;
35506;SDS011;36461;52.018;21.036;2024-01-30T04:56:01;28.10;;;17.10;;
35506;SDS011;36461;52.018;21.036;2024-01-30T04:58:29;32.00;;;16.70;;
35506;SDS011;36461;52.018;21.036;2024-01-30T05:00:57;24.00;;;15.40;;
35506;SDS011;36461;52.018;21.036;2024-01-30T05:03:26;26.00;;;16.10;;
35506;SDS011;36461;52.018;21.036;2024-01-30T05:05:55;26.80;;;16.40;;
35506;SDS011;36461;52.018;21.036;2024-01-30T05:08:23;27.60;;;16.40;;
35506;SDS011;36461;52.018;21.036;2024-01-30T05:10:52;29.30;;;17.70;;
35506;SDS011;36461;52.018;21.036;2024-01-30T05:13:20;28.30;;;17.00;;
35506;SDS011;36461;52.018;21.036;2024-01-30T05:15:49;31.10;;;18.10;;
35506;SDS011;36461;52.018;21.036;2024-01-30T05:18:17;34.10;;;19.40;;
35506;SDS011;36461;52.018;21.036;2024-01-30T05:20:45;33.20;;;19.10;;
35506;SDS011;36461;52.018;21.036;2024-01-30T05:23:14;30.70;;;18.80;;
35506;SDS011;36461;52.018;21.036;2024-01-30T05:25:42;36.70;;;19.60;;
35506;SDS011;36461;52.018;21.036;2024-01-30T05:28:10;31.80;;;18.80;;
35506;SDS011;36461;52.018;21.036;2024-01-30T05:30:38;31.60;;;17.40;;
35506;SDS011;36461;52.018;21.036;2024-01-30T05:33:07;36.00;;;20.80;;
35506;SDS011;36461;52.018;21.036;2024-01-30T05:35:35;35.50;;;20.80;;
35506;SDS011;36461;52.018;21.036;2024-01-30T05:38:04;32.90;;;20.30;;
35506;SDS011;36461;52.018;21.036;2024-01-30T05:40:32;31.50;;;20.10;;
35506;SDS011;36461;52.018;21.036;2024-01-30T05:43:00;37.00;;;22.70;;
35506;SDS011;36461;52.018;21.036;2024-01-30T05:45:31;36.70;;;22.50;;
35506;SDS011;36461;52.018;21.036;2024-01-30T05:47:59;35.90;;;22.10;;
35506;SDS011;36461;52.018;21.036;2024-01-30T05:50:27;38.40;;;22.60;;
35506;SDS011;36461;52.018;21.036;2024-01-30T05:52:56;36.50;;;23.30;;
35506;SDS011;36461;52.018;21.036;2024-01-30T05:55:24;40.30;;;23.20;;
35506;SDS011;36461;52.018;21.036;2024-01-30T05:57:52;37.20;;;23.40;;
35506;SDS011;36461;52.018;21.036;2024-01-30T06:00:21;39.40;;;23.20;;
35506;SDS011;36461;52.018;21.036;2024-01-30T06:02:49;39.80;;;22.80;;
35506;SDS011;36461;52.018;21.036;2024-01-30T06:05:17;40.60;;;22.50;;
35506;SDS011;36461;52.018;21.036;2024-01-30T06:07:46;37.60;;;21.80;;
35506;SDS011;36461;52.018;21.036;2024-01-30T06:10:14;40.30;;;23.00;;
35506;SDS011;36461;52.018;21.036;2024-01-30T06:12:45;36.60;;;23.40;;
35506;SDS011;36461;52.018;21.036;2024-01-30T06:15:13;37.70;;;21.20;;
35506;SDS011;36461;52.018;21.036;2024-01-30T06:17:41;38.30;;;22.30;;
35506;SDS011;36461;52.018;21.036;2024-01-30T06:20:10;33.30;;;20.50;;
35506;SDS011;36461;52.018;21.036;2024-01-30T06:22:38;30.80;;;19.50;;
35506;SDS011;36461;52.018;21.036;2024-01-30T06:25:07;35.80;;;21.10;;
35506;SDS011;36461;52.018;21.036;2024-01-30T06:27:36;32.10;;;19.30;;
35506;SDS011;36461;52.018;21.036;2024-01-30T06:30:04;30.80;;;19.10;;
35506;SDS011;36461;52.018;21.036;2024-01-30T06:32:33;30.80;;;18.50;;
35506;SDS011;36461;52.018;21.036;2024-01-30T06:35:03;31.50;;;17.70;;
35506;SDS011;36461;52.018;21.036;2024-01-30T06:37:32;35.50;;;19.20;;
35506;SDS011;36461;52.018;21.036;2024-01-30T06:40:01;33.50;;;18.70;;
35506;SDS011;36461;52.018;21.036;2024-01-30T06:42:29;32.10;;;18.60;;
35506;SDS011;36461;52.018;21.036;2024-01-30T06:44:57;34.40;;;18.50;;
35506;SDS011;36461;52.018;21.036;2024-01-30T06:47:25;34.80;;;19.80;;
35506;SDS011;36461;52.018;21.036;2024-01-30T06:49:54;31.90;;;19.10;;
35506;SDS011;36461;52.018;21.036;2024-01-30T06:52:22;31.10;;;18.50;;
35506;SDS011;36461;52.018;21.036;2024-01-30T06:54:51;28.90;;;18.40;;
35506;SDS011;36461;52.018;21.036;2024-01-30T06:57:19;29.50;;;18.20;;
35506;SDS011;36461;52.018;21.036;2024-01-30T06:59:47;29.80;;;18.00;;
35506;SDS011;36461;52.018;21.036;2024-01-30T07:02:16;31.70;;;18.20;;
35506;SDS011;36461;52.018;21.036;2024-01-30T07:04:44;28.70;;;17.60;;
35506;SDS011;36461;52.018;21.036;2024-01-30T07:07:14;27.60;;;16.70;;
35506;SDS011;36461;52.018;21.036;2024-01-30T07:09:43;28.60;;;17.60;;
35506;SDS011;36461;52.018;21.036;2024-01-30T07:12:11;27.00;;;17.50;;
35506;SDS011;36461;52.018;21.036;2024-01-30T07:14:40;34.70;;;19.40;;
35506;SDS011;36461;52.018;21.036;2024-01-30T07:17:08;33.60;;;18.60;;
35506;SDS011;36461;52.018;21.036;2024-01-30T07:19:37;31.70;;;18.00;;
35506;SDS011;36461;52.018;21.036;2024-01-30T07:22:05;34.40;;;20.20;;
35506;SDS011;36461;52.018;21.036;2024-01-30T07:24:34;40.60;;;20.10;;
35506;SDS011;36461;52.018;21.036;2024-01-30T07:27:03;35.70;;;20.90;;
35506;SDS011;36461;52.018;21.036;2024-01-30T07:29:31;34.90;;;18.90;;
35506;SDS011;36461;52.018;21.036;2024-01-30T07:32:00;32.70;;;18.40;;
35506;SDS011;36461;52.018;21.036;2024-01-30T07:34:28;31.30;;;18.00;;
35506;SDS011;36461;52.018;21.036;2024-01-30T07:36:57;30.20;;;19.00;;
35506;SDS011;36461;52.018;21.036;2024-01-30T07:39:26;27.30;;;17.10;;
35506;SDS011;36461;52.018;21.036;2024-01-30T07:41:54;29.00;;;18.00;;
35506;SDS011;36461;52.018;21.036;2024-01-30T07:44:22;26.90;;;17.50;;
35506;SDS011;36461;52.018;21.036;2024-01-30T07:46:51;28.00;;;17.00;;
35506;SDS011;36461;52.018;21.036;2024-01-30T07:49:19;31.90;;;18.20;;
35506;SDS011;36461;52.018;21.036;2024-01-30T07:51:48;33.90;;;19.70;;
35506;SDS011;36461;52.018;21.036;2024-01-30T07:54:16;34.20;;;19.80;;
35506;SDS011;36461;52.018;21.036;2024-01-30T07:56:45;36.60;;;20.10;;
35506;SDS011;36461;52.018;21.036;2024-01-30T07:59:13;35.40;;;20.30;;
35506;SDS011;36461;52.018;21.036;2024-01-30T08:01:41;33.60;;;19.00;;
35506;SDS011;36461;52.018;21.036;2024-01-30T08:04:10;29.20;;;17.60;;
35506;SDS011;36461;52.018;21.036;2024-01-30T08:06:38;33.50;;;17.80;;
35506;SDS011;36461;52.018;21.036;2024-01-30T08:09:11;23.30;;;16.10;;
35506;SDS011;36461;52.018;21.036;2024-01-30T08:11:39;26.90;;;16.70;;
35506;SDS011;36461;52.018;21.036;2024-01-30T08:14:07;27.00;;;16.40;;
35506;SDS011;36461;52.018;21.036;2024-01-30T08:16:36;24.00;;;15.80;;
35506;SDS011;36461;52.018;21.036;2024-01-30T08:19:04;26.00;;;16.50;;
35506;SDS011;36461;52.018;21.036;2024-01-30T08:21:33;27.00;;;15.70;;
35506;SDS011;36461;52.018;21.036;2024-01-30T08:24:06;28.30;;;16.90;;
35506;SDS011;36461;52.018;21.036;2024-01-30T08:26:35;28.60;;;18.10;;
35506;SDS011;36461;52.018;21.036;2024-01-30T08:29:04;30.90;;;18.10;;
35506;SDS011;36461;52.018;21.036;2024-01-30T08:31:32;31.70;;;17.70;;
35506;SDS011;36461;52.018;21.036;2024-01-30T08:34:01;30.10;;;17.40;;
35506;SDS011;36461;52.018;21.036;2024-01-30T08:36:29;28.40;;;17.30;;
35506;SDS011;36461;52.018;21.036;2024-01-30T08:38:58;34.00;;;18.20;;
35506;SDS011;36461;52.018;21.036;2024-01-30T08:41:30;30.10;;;17.90;;
35506;SDS011;36461;52.018;21.036;2024-01-30T08:43:59;26.50;;;16.40;;
35506;SDS011;36461;52.018;21.036;2024-01-30T08:46:27;24.90;;;15.50;;
35506;SDS011;36461;52.018;21.036;2024-01-30T08:48:56;24.90;;;15.20;;
35506;SDS011;36461;52.018;21.036;2024-01-30T08:51:24;27.60;;;16.10;;
35506;SDS011;36461;52.018;21.036;2024-01-30T08:53:53;24.60;;;14.90;;
35506;SDS011;36461;52.018;21.036;2024-01-30T08:56:22;25.20;;;14.90;;
35506;SDS011;36461;52.018;21.036;2024-01-30T08:58:51;24.10;;;14.90;;
35506;SDS011;36461;52.018;21.036;2024-01-30T09:01:19;27.20;;;15.60;;
35506;SDS011;36461;52.018;21.036;2024-01-30T09:03:48;23.50;;;15.20;;
35506;SDS011;36461;52.018;21.036;2024-01-30T09:06:16;25.30;;;14.80;;
35506;SDS011;36461;52.018;21.036;2024-01-30T09:08:44;26.60;;;14.60;;
35506;SDS011;36461;52.018;21.036;2024-01-30T09:11:13;26.20;;;15.60;;
35506;SDS011;36461;52.018;21.036;2024-01-30T09:13:42;26.60;;;15.20;;
35506;SDS011;36461;52.018;21.036;2024-01-30T09:16:11;23.00;;;14.90;;
35506;SDS011;36461;52.018;21.036;2024-01-30T09:18:40;26.50;;;13.90;;
35506;SDS011;36461;52.018;21.036;2024-01-30T09:21:09;24.60;;;14.50;;
35506;SDS011;36461;52.018;21.036;2024-01-30T09:23:37;23.20;;;13.80;;
35506;SDS011;36461;52.018;21.036;2024-01-30T09:26:06;23.30;;;14.20;;
35506;SDS011;36461;52.018;21.036;2024-01-30T09:28:34;24.90;;;14.50;;
35506;SDS011;36461;52.018;21.036;2024-01-30T09:31:03;23.00;;;14.40;;
35506;SDS011;36461;52.018;21.036;2024-01-30T09:33:31;24.40;;;13.30;;
35506;SDS011;36461;52.018;21.036;2024-01-30T09:36:00;24.60;;;14.40;;
35506;SDS011;36461;52.018;21.036;2024-01-30T09:38:28;23.20;;;14.10;;
35506;SDS011;36461;52.018;21.036;2024-01-30T09:40:56;23.60;;;14.30;;
35506;SDS011;36461;52.018;21.036;2024-01-30T09:43:33;19.30;;;12.20;;
35506;SDS011;36461;52.018;21.036;2024-01-30T09:46:02;21.50;;;13.00;;
35506;SDS011;36461;52.018;21.036;2024-01-30T09:48:32;22.80;;;14.10;;
35506;SDS011;36461;52.018;21.036;2024-01-30T09:51:01;23.30;;;13.50;;
35506;SDS011;36461;52.018;21.036;2024-01-30T09:53:30;22.10;;;13.00;;
35506;SDS011;36461;52.018;21.036;2024-01-30T09:55:59;25.00;;;14.10;;
35506;SDS011;36461;52.018;21.036;2024-01-30T09:58:30;22.30;;;13.10;;
35506;SDS011;36461;52.018;21.036;2024-01-30T10:00:58;21.30;;;12.90;;
35506;SDS011;36461;52.018;21.036;2024-01-30T10:03:27;19.80;;;12.60;;
35506;SDS011;36461;52.018;21.036;2024-01-30T10:05:56;19.40;;;12.50;;
35506;SDS011;36461;52.018;21.036;2024-01-30T10:08:26;23.40;;;13.00;;
35506;SDS011;36461;52.018;21.036;2024-01-30T10:10:54;22.60;;;12.50;;
35506;SDS011;36461;52.018;21.036;2024-01-30T10:13:22;21.50;;;13.10;;
35506;SDS011;36461;52.018;21.036;2024-01-30T10:15:52;24.00;;;13.50;;
35506;SDS011;36461;52.018;21.036;2024-01-30T10:18:22;23.70;;;13.80;;
35506;SDS011;36461;52.018;21.036;2024-01-30T10:20:51;24.90;;;13.70;;
35506;SDS011;36461;52.018;21.036;2024-01-30T10:23:20;22.50;;;13.90;;
35506;SDS011;36461;52.018;21.036;2024-01-30T10:25:48;21.20;;;12.70;;
35506;SDS011;36461;52.018;21.036;2024-01-30T10:28:16;22.00;;;14.00;;
35506;SDS011;36461;52.018;21.036;2024-01-30T10:30:45;22.60;;;14.30;;
35506;SDS011;36461;52.018;21.036;2024-01-30T10:33:13;21.00;;;13.30;;
35506;SDS011;36461;52.018;21.036;2024-01-30T10:35:42;21.20;;;13.10;;
35506;SDS011;36461;52.018;21.036;2024-01-30T10:38:11;22.10;;;13.30;;
35506;SDS011;36461;52.018;21.036;2024-01-30T10:40:43;20.30;;;12.90;;
35506;SDS011;36461;52.018;21.036;2024-01-30T10:43:12;20.80;;;12.40;;
35506;SDS011;36461;52.018;21.036;2024-01-30T10:45:45;18.70;;;11.20;;
35506;SDS011;36461;52.018;21.036;2024-01-30T10:48:17;18.20;;;12.00;;
35506;SDS011;36461;52.018;21.036;2024-01-30T10:50:50;20.00;;;12.10;;
35506;SDS011;36461;52.018;21.036;2024-01-30T10:53:28;19.40;;;12.50;;
35506;SDS011;36461;52.018;21.036;2024-01-30T10:55:59;19.40;;;12.30;;
35506;SDS011;36461;52.018;21.036;2024-01-30T10:58:28;19.90;;;13.00;;
35506;SDS011;36461;52.018;21.036;2024-01-30T11:00:56;21.00;;;12.40;;
35506;SDS011;36461;52.018;21.036;2024-01-30T11:03:27;18.80;;;12.00;;
35506;SDS011;36461;52.018;21.036;2024-01-30T11:05:58;20.90;;;12.70;;
35506;SDS011;36461;52.018;21.036;2024-01-30T11:08:28;20.60;;;13.30;;
35506;SDS011;36461;52.018;21.036;2024-01-30T11:10:57;18.40;;;11.60;;
35506;SDS011;36461;52.018;21.036;2024-01-30T11:13:27;21.00;;;11.60;;
35506;SDS011;36461;52.018;21.036;2024-01-30T11:16:07;19.20;;;12.30;;
35506;SDS011;36461;52.018;21.036;2024-01-30T11:18:39;17.60;;;11.80;;
35506;SDS011;36461;52.018;21.036;2024-01-30T11:21:08;22.30;;;13.30;;
35506;SDS011;36461;52.018;21.036;2024-01-30T11:23:36;21.10;;;13.10;;
35506;SDS011;36461;52.018;21.036;2024-01-30T11:26:06;19.70;;;12.20;;
35506;SDS011;36461;52.018;21.036;2024-01-30T11:28:35;23.20;;;13.00;;
35506;SDS011;36461;52.018;21.036;2024-01-30T11:31:06;18.30;;;11.50;;
35506;SDS011;36461;52.018;21.036;2024-01-30T11:33:36;21.50;;;13.40;;
35506;SDS011;36461;52.018;21.036;2024-01-30T11:36:05;21.30;;;13.20;;
35506;SDS011;36461;52.018;21.036;2024-01-30T11:38:35;22.60;;;13.20;;
35506;SDS011;36461;52.018;21.036;2024-01-30T11:41:04;26.30;;;14.20;;
35506;SDS011;36461;52.018;21.036;2024-01-30T11:43:32;20.40;;;13.40;;
35506;SDS011;36461;52.018;21.036;2024-01-30T11:46:05;26.30;;;14.40;;
35506;SDS011;36461;52.018;21.036;2024-01-30T11:48:35;22.00;;;13.20;;
35506;SDS011;36461;52.018;21.036;2024-01-30T11:51:04;21.60;;;13.00;;
35506;SDS011;36461;52.018;21.036;2024-01-30T11:53:32;19.90;;;11.80;;
35506;SDS011;36461;52.018;21.036;2024-01-30T11:56:00;19.00;;;11.70;;
35506;SDS011;36461;52.018;21.036;2024-01-30T11:58:29;20.80;;;12.00;;
35506;SDS011;36461;52.018;21.036;2024-01-30T12:00:57;22.10;;;12.50;;
35506;SDS011;36461;52.018;21.036;2024-01-30T12:03:26;22.80;;;13.10;;
35506;SDS011;36461;52.018;21.036;2024-01-30T12:05:56;22.00;;;13.50;;
35506;SDS011;36461;52.018;21.036;2024-01-30T12:08:27;21.70;;;12.60;;
35506;SDS011;36461;52.018;21.036;2024-01-30T12:10:56;20.10;;;12.10;;
35506;SDS011;36461;52.018;21.036;2024-01-30T12:13:30;19.60;;;12.00;;
35506;SDS011;36461;52.018;21.036;2024-01-30T12:16:00;19.90;;;11.70;;
35506;SDS011;36461;52.018;21.036;2024-01-30T12:18:30;18.40;;;11.60;;
35506;SDS011;36461;52.018;21.036;2024-01-30T12:20:59;17.30;;;10.90;;
35506;SDS011;36461;52.018;21.036;2024-01-30T12:23:28;19.60;;;11.50;;
35506;SDS011;36461;52.018;21.036;2024-01-30T12:25:57;22.00;;;12.60;;
35506;SDS011;36461;52.018;21.036;2024-01-30T12:28:26;21.30;;;12.10;;
35506;SDS011;36461;52.018;21.036;2024-01-30T12:30:55;19.70;;;12.00;;
35506;SDS011;36461;52.018;21.036;2024-01-30T12:33:29;18.40;;;10.80;;
35506;SDS011;36461;52.018;21.036;2024-01-30T12:36:01;21.90;;;12.60;;
35506;SDS011;36461;52.018;21.036;2024-01-30T12:38:31;18.00;;;12.20;;
35506;SDS011;36461;52.018;21.036;2024-01-30T12:41:00;20.80;;;12.20;;
35506;SDS011;36461;52.018;21.036;2024-01-30T12:43:29;20.60;;;11.60;;
35506;SDS011;36461;52.018;21.036;2024-01-30T12:46:05;19.20;;;11.30;;
35506;SDS011;36461;52.018;21.036;2024-01-30T12:48:34;17.80;;;11.20;;
35506;SDS011;36461;52.018;21.036;2024-01-30T12:51:03;19.80;;;11.80;;
35506;SDS011;36461;52.018;21.036;2024-01-30T12:53:32;18.20;;;11.40;;
35506;SDS011;36461;52.018;21.036;2024-01-30T12:56:01;17.90;;;11.40;;
35506;SDS011;36461;52.018;21.036;2024-01-30T12:58:29;16.30;;;10.10;;
35506;SDS011;36461;52.018;21.036;2024-01-30T13:00:58;20.60;;;11.80;;
35506;SDS011;36461;52.018;21.036;2024-01-30T13:03:27;17.40;;;11.10;;
35506;SDS011;36461;52.018;21.036;2024-01-30T13:05:56;17.20;;;10.60;;
35506;SDS011;36461;52.018;21.036;2024-01-30T13:08:25;17.20;;;10.30;;
35506;SDS011;36461;52.018;21.036;2024-01-30T13:10:53;17.70;;;10.40;;
35506;SDS011;36461;52.018;21.036;2024-01-30T13:13:21;18.20;;;10.30;;
35506;SDS011;36461;52.018;21.036;2024-01-30T13:15:50;17.10;;;9.90;;
35506;SDS011;36461;52.018;21.036;2024-01-30T13:18:18;16.50;;;10.60;;
35506;SDS011;36461;52.018;21.036;2024-01-30T13:20:46;15.40;;;10.20;;
35506;SDS011;36461;52.018;21.036;2024-01-30T13:23:15;16.20;;;10.40;;
35506;SDS011;36461;52.018;21.036;2024-01-30T13:25:43;16.30;;;10.00;;
35506;SDS011;36461;52.018;21.036;2024-01-30T13:28:12;16.40;;;10.00;;
35506;SDS011;36461;52.018;21.036;2024-01-30T13:30:40;17.20;;;10.10;;
35506;SDS011;36461;52.018;21.036;2024-01-30T13:33:08;14.90;;;9.50;;
35506;SDS011;36461;52.018;21.036;2024-01-30T13:35:37;19.30;;;11.20;;
35506;SDS011;36461;52.018;21.036;2024-01-30T13:38:06;15.80;;;9.80;;
35506;SDS011;36461;52.018;21.036;2024-01-30T13:40:34;17.50;;;10.00;;
35506;SDS011;36461;52.018;21.036;2024-01-30T13:43:03;18.20;;;10.80;;
35506;SDS011;36461;52.018;21.036;2024-01-30T13:45:31;16.00;;;9.50;;
35506;SDS011;36461;52.018;21.036;2024-01-30T13:48:00;15.90;;;10.00;;
35506;SDS011;36461;52.018;21.036;2024-01-30T13:50:28;16.20;;;9.20;;
35506;SDS011;36461;52.018;21.036;2024-01-30T13:52:56;15.80;;;9.50;;
35506;SDS011;36461;52.018;21.036;2024-01-30T13:55:27;15.80;;;9.60;;
35506;SDS011;36461;52.018;21.036;2024-01-30T13:57:55;16.70;;;9.40;;
35506;SDS011;36461;52.018;21.036;2024-01-30T14:00:25;16.20;;;8.80;;
35506;SDS011;36461;52.018;21.036;2024-01-30T14:02:54;17.40;;;9.20;;
35506;SDS011;36461;52.018;21.036;2024-01-30T14:05:28;15.50;;;9.80;;
35506;SDS011;36461;52.018;21.036;2024-01-30T14:07:57;15.30;;;9.30;;
35506;SDS011;36461;52.018;21.036;2024-01-30T14:10:27;15.10;;;8.80;;
35506;SDS011;36461;52.018;21.036;2024-01-30T14:12:56;14.70;;;8.70;;
35506;SDS011;36461;52.018;21.036;2024-01-30T14:15:24;12.90;;;8.80;;
35506;SDS011;36461;52.018;21.036;2024-01-30T14:17:56;19.50;;;9.50;;
35506;SDS011;36461;52.018;21.036;2024-01-30T14:20:26;15.80;;;9.10;;
35506;SDS011;36461;52.018;21.036;2024-01-30T14:22:55;16.90;;;9.10;;
35506;SDS011;36461;52.018;21.036;2024-01-30T14:25:24;17.60;;;9.10;;